createdAt,value
2023-01-17T00:02:04.330Z,0.50
2023-01-17T00:05:24.997Z,0.50
2023-01-17T00:08:55.117Z,0.55
2023-01-17T00:11:57.653Z,0.60
2023-01-17T00:15:00.614Z,0.52
2023-01-17T00:18:02.085Z,0.50
2023-01-17T00:21:22.121Z,0.60
2023-01-17T00:24:41.955Z,0.70
2023-01-17T00:27:43.416Z,0.50
2023-01-17T00:30:45.705Z,0.50
2023-01-17T00:33:47.127Z,0.50
2023-01-17T00:36:48.559Z,0.60
2023-01-17T00:39:50.006Z,0.50
2023-01-17T00:42:51.442Z,0.60
2023-01-17T00:46:12.023Z,0.60
2023-01-17T00:49:32.260Z,0.52
2023-01-17T00:52:52.287Z,0.60
2023-01-17T00:56:12.025Z,0.50
2023-01-17T00:59:31.926Z,0.50
2023-01-17T01:02:53.432Z,0.55
2023-01-17T01:06:13.374Z,0.60
2023-01-17T01:09:33.209Z,0.60
2023-01-17T01:12:53.201Z,0.60
2023-01-17T01:16:13.168Z,0.60
2023-01-17T01:19:33.391Z,0.60
2023-01-17T01:22:53.399Z,0.50
2023-01-17T01:26:13.260Z,0.60
2023-01-17T01:29:33.172Z,0.47
2023-01-17T01:32:53.988Z,0.38
2023-01-17T01:35:58.374Z,0.70
2023-01-17T01:38:59.977Z,0.50
2023-01-17T01:42:03.137Z,0.52
2023-01-17T01:45:29.253Z,0.50
2023-01-17T01:48:41.877Z,0.57
2023-01-17T01:51:55.809Z,0.40
2023-01-17T01:55:07.285Z,0.70
2023-01-17T01:58:14.974Z,0.57
2023-01-17T02:01:17.905Z,0.47
2023-01-17T02:04:20.651Z,0.57
2023-01-17T02:07:28.539Z,0.55
2023-01-17T02:10:39.127Z,0.60
2023-01-17T02:13:40.893Z,0.40
2023-01-17T02:16:44.237Z,0.60
2023-01-17T02:20:04.226Z,0.57
2023-01-17T02:23:17.841Z,0.50
2023-01-17T02:26:34.357Z,0.60
2023-01-17T02:29:47.889Z,0.50
2023-01-17T02:33:14.126Z,0.50
2023-01-17T02:36:56.458Z,0.50
2023-01-17T02:40:04.705Z,0.60
2023-01-17T02:43:11.245Z,0.63
2023-01-17T02:49:17.939Z,0.50
2023-01-17T02:52:37.466Z,0.85
2023-01-17T02:56:00.103Z,0.50
2023-01-17T02:59:15.394Z,0.40
2023-01-17T03:02:40.789Z,0.50
2023-01-17T03:05:57.899Z,0.50
2023-01-17T03:12:00.774Z,0.50
2023-01-17T03:15:02.583Z,0.45
2023-01-17T03:18:11.181Z,0.40
2023-01-17T03:21:12.710Z,0.50
2023-01-17T03:24:14.168Z,0.47
2023-01-17T03:27:15.711Z,0.43
2023-01-17T03:30:17.737Z,0.47
2023-01-17T03:33:19.396Z,0.50
2023-01-17T03:36:20.843Z,0.47
2023-01-17T03:39:22.365Z,0.40
2023-01-17T03:42:23.923Z,0.50
2023-01-17T03:45:25.397Z,0.43
2023-01-17T03:48:26.849Z,0.40
2023-01-17T03:51:28.428Z,0.40
2023-01-17T03:54:29.932Z,0.40
2023-01-17T03:57:31.443Z,0.30
2023-01-17T04:00:32.966Z,0.40
2023-01-17T04:03:34.494Z,0.50
2023-01-17T04:06:35.985Z,0.40
2023-01-17T04:09:37.503Z,0.50
2023-01-17T04:12:38.990Z,0.30
2023-01-17T04:15:40.634Z,0.40
2023-01-17T04:18:42.280Z,0.40
2023-01-17T04:21:43.886Z,0.40
2023-01-17T04:24:45.401Z,0.40
2023-01-17T04:27:46.916Z,0.30
2023-01-17T04:30:48.456Z,0.30
2023-01-17T04:33:49.944Z,0.50
2023-01-17T04:36:51.490Z,0.40
2023-01-17T04:39:52.965Z,0.25
2023-01-17T04:42:54.477Z,0.50
2023-01-17T04:45:57.442Z,0.25
2023-01-17T04:49:00.411Z,0.40
2023-01-17T04:52:01.923Z,0.50
2023-01-17T04:55:03.653Z,0.50
2023-01-17T04:58:05.176Z,0.50
2023-01-17T05:01:08.318Z,0.60
2023-01-17T05:04:09.908Z,0.60
2023-01-17T05:07:11.394Z,0.80
2023-01-17T05:10:12.941Z,0.50
2023-01-17T05:13:14.976Z,0.60
2023-01-17T05:16:19.676Z,0.60
2023-01-17T05:19:21.644Z,0.95
2023-01-17T05:22:23.166Z,0.50
2023-01-17T05:25:27.614Z,0.60
2023-01-17T05:28:29.210Z,0.60
2023-01-17T05:31:30.681Z,0.55
2023-01-17T05:34:32.334Z,0.50
2023-01-17T05:37:33.812Z,0.50
2023-01-17T05:40:35.425Z,0.57
2023-01-17T05:43:36.876Z,0.50
2023-01-17T05:46:38.424Z,0.55
2023-01-17T05:49:39.980Z,0.40
2023-01-17T05:52:41.612Z,0.50
2023-01-17T05:55:43.895Z,0.75
2023-01-17T05:58:45.513Z,0.70
2023-01-17T06:01:47.058Z,0.50
2023-01-17T06:04:48.605Z,0.50
2023-01-17T06:07:50.821Z,0.50
2023-01-17T06:10:52.390Z,0.50
2023-01-17T06:13:53.834Z,0.40
2023-01-17T06:16:55.279Z,0.50
2023-01-17T06:19:56.807Z,0.60
2023-01-17T06:23:01.311Z,0.57
2023-01-17T06:26:04.433Z,0.40
2023-01-17T06:29:05.931Z,0.45
2023-01-17T06:32:07.450Z,0.60
2023-01-17T06:35:09.272Z,0.70
2023-01-17T06:38:10.796Z,0.50
2023-01-17T06:41:12.241Z,0.60
2023-01-17T06:44:13.783Z,0.52
2023-01-17T06:47:15.265Z,0.30
2023-01-17T06:50:16.970Z,0.40
2023-01-17T06:53:18.474Z,0.38
2023-01-17T06:56:20.607Z,0.45
2023-01-17T06:59:22.114Z,0.50
2023-01-17T07:02:23.570Z,0.40
2023-01-17T07:05:25.214Z,0.45
2023-01-17T07:08:26.750Z,0.50
2023-01-17T07:11:28.360Z,0.45
2023-01-17T07:14:29.951Z,0.50
2023-01-17T07:17:31.422Z,0.50
2023-01-17T07:20:33.271Z,0.55
2023-01-17T07:23:34.735Z,0.50
2023-01-17T07:26:37.970Z,0.20
2023-01-17T07:29:39.419Z,0.40
2023-01-17T07:32:40.932Z,0.50
2023-01-17T07:35:42.987Z,0.28
2023-01-17T07:38:48.703Z,0.30
2023-01-17T07:41:50.192Z,0.40
2023-01-17T07:44:54.057Z,0.40
2023-01-17T07:47:58.685Z,0.40
2023-01-17T07:51:00.278Z,0.50
2023-01-17T07:54:01.738Z,0.50
2023-01-17T07:57:03.800Z,0.43
2023-01-17T08:00:05.934Z,0.30
2023-01-17T08:03:17.431Z,0.50
2023-01-17T08:06:22.222Z,0.47
2023-01-17T08:09:23.712Z,0.30
2023-01-17T08:12:25.983Z,0.28
2023-01-17T08:15:27.536Z,0.40
2023-01-17T08:18:29.943Z,0.40
2023-01-17T08:21:31.513Z,0.38
2023-01-17T08:24:33.253Z,0.40
2023-01-17T08:27:36.234Z,0.30
2023-01-17T08:30:38.004Z,0.40
2023-01-17T08:33:39.481Z,0.55
2023-01-17T08:36:42.832Z,0.40
2023-01-17T08:39:44.328Z,0.40
2023-01-17T08:42:54.342Z,0.40
2023-01-17T08:45:56.044Z,0.52
2023-01-17T08:48:59.014Z,0.30
2023-01-17T08:52:00.577Z,0.40
2023-01-17T08:55:02.251Z,0.30
2023-01-17T08:58:03.722Z,0.40
2023-01-17T09:01:06.431Z,0.40
2023-01-17T09:04:08.958Z,0.40
2023-01-17T09:07:10.662Z,0.40
2023-01-17T09:10:12.479Z,0.40
2023-01-17T09:13:14.026Z,0.38
2023-01-17T09:16:15.556Z,0.40
2023-01-17T09:19:17.100Z,0.50
2023-01-17T09:22:18.691Z,0.43
2023-01-17T09:25:20.157Z,0.38
2023-01-17T09:28:21.900Z,0.43
2023-01-17T09:31:24.409Z,0.50
2023-01-17T09:34:26.643Z,0.52
2023-01-17T09:37:28.157Z,0.47
2023-01-17T09:40:30.129Z,0.50
2023-01-17T09:43:39.003Z,0.40
2023-01-17T09:46:46.590Z,0.50
2023-01-17T09:52:49.616Z,0.38
2023-01-17T09:56:19.552Z,0.40
2023-01-17T09:59:33.152Z,0.43
2023-01-17T10:02:46.332Z,0.50
2023-01-17T10:06:01.222Z,0.80
2023-01-17T10:09:12.210Z,0.43
2023-01-17T10:12:19.858Z,0.50
2023-01-17T10:15:36.118Z,0.73
2023-01-17T10:19:03.833Z,0.50
2023-01-17T10:22:23.357Z,0.60
2023-01-17T10:25:38.377Z,0.45
2023-01-17T10:28:46.668Z,0.50
2023-01-17T10:31:54.207Z,0.50
2023-01-17T10:35:02.136Z,0.45
2023-01-17T10:38:10.318Z,0.55
2023-01-17T10:41:21.428Z,0.43
2023-01-17T10:44:38.555Z,0.47
2023-01-17T10:47:44.342Z,0.57
2023-01-17T10:50:59.551Z,0.52
2023-01-17T10:54:04.158Z,0.40
2023-01-17T10:57:16.043Z,0.50
2023-01-17T11:00:40.033Z,0.60
2023-01-17T11:03:43.950Z,0.70
2023-01-17T11:06:57.854Z,0.90
2023-01-17T11:09:59.849Z,0.90
2023-01-17T11:13:01.565Z,1.10
2023-01-17T11:16:27.543Z,1.10
2023-01-17T11:19:36.074Z,1.10
2023-01-17T11:22:37.851Z,0.93
2023-01-17T11:25:39.445Z,1.10
2023-01-17T11:28:41.435Z,1.17
2023-01-17T11:31:42.943Z,0.98
2023-01-17T11:34:44.435Z,1.00
2023-01-17T11:38:10.671Z,0.98
2023-01-17T11:41:20.608Z,1.05
2023-01-17T11:44:22.079Z,1.00
2023-01-17T11:47:23.676Z,1.00
2023-01-17T11:50:26.412Z,1.00
2023-01-17T11:53:38.095Z,1.20
2023-01-17T11:56:44.035Z,1.10
2023-01-17T11:59:47.554Z,1.10
2023-01-17T12:03:18.146Z,1.05
2023-01-17T12:06:28.721Z,1.10
2023-01-17T12:09:45.104Z,1.05
2023-01-17T12:13:08.095Z,1.38
2023-01-17T12:16:47.863Z,1.17
2023-01-17T12:20:01.313Z,1.10
2023-01-17T12:23:34.346Z,1.05
2023-01-17T12:26:35.833Z,1.73
2023-01-17T12:29:49.455Z,1.30
2023-01-17T12:33:28.200Z,1.42
2023-01-17T12:36:49.431Z,1.67
2023-01-17T12:40:10.296Z,1.38
2023-01-17T12:43:21.492Z,1.63
2023-01-17T12:46:38.447Z,1.40
2023-01-17T12:53:07.292Z,1.20
2023-01-17T12:56:24.704Z,1.33
2023-01-17T12:59:42.632Z,1.33
2023-01-17T13:02:53.133Z,1.30
2023-01-17T13:05:57.442Z,1.48
2023-01-17T13:09:02.154Z,1.38
2023-01-17T13:12:15.962Z,1.55
2023-01-17T13:15:24.778Z,1.33
2023-01-17T13:18:29.606Z,1.48
2023-01-17T13:21:33.525Z,1.88
2023-01-17T13:24:37.873Z,1.60
2023-01-17T13:28:04.324Z,1.33
2023-01-17T13:31:30.434Z,1.30
2023-01-17T13:34:56.567Z,1.58
2023-01-17T13:38:28.505Z,1.50
2023-01-17T13:41:42.122Z,1.25
2023-01-17T13:44:45.461Z,1.20
2023-01-17T13:47:47.092Z,1.23
2023-01-17T13:50:52.890Z,1.20
2023-01-17T13:53:54.891Z,1.20
2023-01-17T13:57:30.265Z,1.27
2023-01-17T14:00:43.924Z,1.17
2023-01-17T14:03:54.301Z,1.08
2023-01-17T14:06:59.400Z,0.85
2023-01-17T14:10:01.249Z,1.33
2023-01-17T14:13:05.499Z,1.20
2023-01-17T14:16:22.128Z,1.00
2023-01-17T14:19:27.013Z,1.00
2023-01-17T14:22:33.397Z,0.90
2023-01-17T14:25:41.677Z,0.95
2023-01-17T14:28:43.168Z,0.98
2023-01-17T14:31:45.073Z,1.08
2023-01-17T14:34:48.872Z,1.13
2023-01-17T14:37:54.414Z,0.90
2023-01-17T14:41:01.964Z,1.10
2023-01-17T14:44:03.891Z,0.95
2023-01-17T14:47:05.605Z,0.90
2023-01-17T14:50:23.512Z,0.98
2023-01-17T14:53:28.501Z,0.90
2023-01-17T14:56:31.250Z,0.90
2023-01-17T14:59:32.738Z,0.98
2023-01-17T15:02:34.551Z,0.98
2023-01-17T15:05:41.067Z,0.90
2023-01-17T15:08:42.909Z,0.95
2023-01-17T15:11:45.916Z,1.35
2023-01-17T15:14:47.558Z,0.88
2023-01-17T15:17:49.067Z,0.80
2023-01-17T15:21:06.923Z,1.02
2023-01-17T15:24:25.103Z,0.80
2023-01-17T15:27:26.995Z,1.05
2023-01-17T15:30:28.578Z,0.90
2023-01-17T15:33:31.998Z,0.85
2023-01-17T15:36:34.556Z,1.00
2023-01-17T15:39:38.882Z,0.95
2023-01-17T15:42:43.389Z,1.00
2023-01-17T15:45:55.460Z,0.80
2023-01-17T15:49:08.577Z,0.90
2023-01-17T15:52:15.466Z,0.80
2023-01-17T15:55:23.850Z,0.95
2023-01-17T15:58:28.425Z,1.00
2023-01-17T16:01:30.104Z,0.90
2023-01-17T16:04:37.164Z,0.80
2023-01-17T16:07:38.798Z,0.80
2023-01-17T16:10:40.905Z,0.88
2023-01-17T16:13:43.264Z,0.80
2023-01-17T16:16:54.184Z,1.65
2023-01-17T16:19:55.823Z,1.70
2023-01-17T16:22:57.318Z,1.80
2023-01-17T16:25:58.803Z,1.70
2023-01-17T16:29:00.290Z,1.25
2023-01-17T16:32:08.525Z,1.25
2023-01-17T16:35:18.924Z,3.08
2023-01-17T16:38:20.520Z,1.30
2023-01-17T16:41:22.080Z,1.23
2023-01-17T16:44:23.545Z,1.20
2023-01-17T16:47:25.000Z,1.52
2023-01-17T16:50:26.470Z,1.30
2023-01-17T16:53:28.437Z,1.40
2023-01-17T16:56:30.094Z,1.30
2023-01-17T16:59:45.937Z,1.30
2023-01-17T17:02:52.095Z,1.13
2023-01-17T17:05:59.070Z,1.48
2023-01-17T17:09:00.542Z,1.40
2023-01-17T17:12:02.072Z,1.52
2023-01-17T17:15:04.206Z,2.25
2023-01-17T17:18:05.737Z,1.55
2023-01-17T17:21:07.464Z,1.50
2023-01-17T17:24:12.750Z,1.42
2023-01-17T17:27:14.313Z,1.60
2023-01-17T17:30:16.066Z,1.40
2023-01-17T17:33:17.598Z,1.48
2023-01-17T17:36:19.259Z,1.30
2023-01-17T17:39:20.868Z,1.17
2023-01-17T17:42:23.033Z,1.52
2023-01-17T17:45:24.568Z,1.38
2023-01-17T17:48:26.098Z,1.30
2023-01-17T17:51:29.106Z,1.40
2023-01-17T17:54:30.586Z,1.30
2023-01-17T17:57:32.058Z,1.33
2023-01-17T18:00:33.638Z,1.13
2023-01-17T18:03:35.194Z,1.30
2023-01-17T18:06:38.544Z,1.35
2023-01-17T18:09:40.049Z,1.40
2023-01-17T18:12:41.497Z,1.27
2023-01-17T18:15:42.998Z,1.30
2023-01-17T18:18:47.545Z,1.30
2023-01-17T18:21:52.808Z,1.10
2023-01-17T18:24:54.300Z,1.50
2023-01-17T18:27:55.918Z,1.50
2023-01-17T18:30:57.728Z,1.15
2023-01-17T18:34:03.116Z,1.30
2023-01-17T18:37:04.645Z,1.40
2023-01-17T18:40:07.079Z,1.20
2023-01-17T18:43:08.530Z,1.23
2023-01-17T18:46:11.024Z,1.30
2023-01-17T18:49:15.284Z,1.30
2023-01-17T18:52:19.356Z,1.30
2023-01-17T18:55:21.235Z,1.30
2023-01-17T18:58:23.962Z,1.30
2023-01-17T19:01:30.756Z,1.30
2023-01-17T19:04:33.932Z,1.33
2023-01-17T19:07:35.748Z,1.40
2023-01-17T19:10:37.213Z,1.50
2023-01-17T19:13:40.351Z,1.33
2023-01-17T19:16:42.654Z,1.40
2023-01-17T19:19:44.900Z,1.50
2023-01-17T19:22:46.402Z,1.23
2023-01-17T19:25:53.649Z,1.50
2023-01-17T19:28:57.525Z,1.45
2023-01-17T19:31:59.195Z,1.40
2023-01-17T19:35:00.659Z,1.63
2023-01-17T19:38:02.140Z,1.15
2023-01-17T19:41:08.957Z,1.58
2023-01-17T19:44:12.624Z,1.40
2023-01-17T19:47:14.125Z,1.50
2023-01-17T19:50:18.556Z,1.30
2023-01-17T19:53:21.300Z,1.38
2023-01-17T19:56:25.433Z,1.38
2023-01-17T19:59:27.105Z,1.30
2023-01-17T20:02:28.801Z,2.55
2023-01-17T20:05:32.255Z,1.77
2023-01-17T20:08:35.047Z,1.50
2023-01-17T20:11:36.851Z,1.30
2023-01-17T20:14:38.342Z,1.40
2023-01-17T20:17:39.833Z,1.55
2023-01-17T20:20:56.347Z,1.20
2023-01-17T20:24:00.353Z,1.40
2023-01-17T20:27:01.825Z,1.33
2023-01-17T20:30:19.291Z,1.40
2023-01-17T20:33:23.219Z,1.60
2023-01-17T20:36:26.623Z,1.40
2023-01-17T20:39:28.314Z,1.33
2023-01-17T20:42:29.782Z,1.13
2023-01-17T20:45:31.312Z,1.33
2023-01-17T20:48:33.232Z,1.40
2023-01-17T20:51:34.747Z,1.40
2023-01-17T20:54:36.304Z,1.30
2023-01-17T20:57:37.803Z,1.20
2023-01-17T21:00:40.290Z,1.50
2023-01-17T21:03:42.294Z,1.27
2023-01-17T21:06:44.417Z,1.38
2023-01-17T21:09:45.941Z,1.20
2023-01-17T21:12:47.426Z,1.40
2023-01-17T21:15:50.082Z,1.40
2023-01-17T21:18:52.539Z,1.30
2023-01-17T21:21:56.125Z,1.10
2023-01-17T21:24:58.686Z,1.10
2023-01-17T21:28:00.169Z,1.20
2023-01-17T21:31:19.347Z,1.13
2023-01-17T21:34:21.171Z,1.30
2023-01-17T21:37:22.620Z,1.30
2023-01-17T21:40:24.158Z,1.05
2023-01-17T21:43:25.628Z,1.25
2023-01-17T21:46:27.918Z,1.20
2023-01-17T21:49:29.424Z,1.05
2023-01-17T21:52:31.550Z,1.10
2023-01-17T21:55:51.568Z,1.25
2023-01-17T21:58:56.457Z,1.30
2023-01-17T22:01:58.296Z,1.20
2023-01-17T22:04:59.904Z,1.08
2023-01-17T22:08:15.228Z,1.10
2023-01-17T22:11:19.426Z,1.10
2023-01-17T22:14:20.927Z,1.10
2023-01-17T22:17:22.425Z,1.10
2023-01-17T22:20:23.905Z,1.00
2023-01-17T22:23:25.615Z,1.00
2023-01-17T22:26:29.578Z,1.20
2023-01-17T22:29:33.424Z,1.13
2023-01-17T22:32:34.896Z,1.10
2023-01-17T22:35:36.427Z,1.10
2023-01-17T22:38:37.889Z,1.17
2023-01-17T22:41:39.478Z,1.10
2023-01-17T22:44:41.005Z,1.15
2023-01-17T22:47:43.351Z,1.13
2023-01-17T22:50:44.861Z,1.10
2023-01-17T22:53:48.913Z,1.20
2023-01-17T22:56:50.380Z,1.00
2023-01-17T22:59:51.908Z,1.00
2023-01-17T23:02:53.390Z,1.08
2023-01-17T23:05:54.868Z,1.17
2023-01-17T23:08:59.984Z,1.10
2023-01-17T23:12:01.639Z,1.10
2023-01-17T23:15:22.234Z,1.00
2023-01-17T23:18:46.976Z,0.93
2023-01-17T23:22:08.428Z,1.00
2023-01-17T23:25:13.202Z,0.90
2023-01-17T23:28:20.636Z,1.02
2023-01-17T23:31:23.300Z,0.90
2023-01-17T23:34:24.813Z,1.00
2023-01-17T23:37:47.741Z,1.10
2023-01-17T23:41:07.748Z,1.10
2023-01-17T23:44:09.196Z,1.20
2023-01-17T23:47:10.673Z,1.00
2023-01-17T23:50:12.135Z,1.00
2023-01-17T23:53:22.104Z,1.10
2023-01-17T23:56:24.594Z,1.00
2023-01-17T23:59:26.091Z,1.00
